Time;durP1;ratioP1;P1;durP2;ratioP2;P2;SDS_P1;SDS_P2;PMS_P1;PMS_P2;Temp;Humidity;BMP_temperature;BMP_pressure;BME280_temperature;BME280_humidity;BME280_pressure;Samples;Min_cycle;Max_cycle;Signal;HPM_P1;HPM_P2
2023/07/09 00:00:18;;;;;;;9.02;6.50;;;20.10;80.60;;;;;;5039601;28;20094;-73
2023/07/09 00:02:45;;;;;;;7.13;6.10;;;20.00;78.50;;;;;;5037990;28;20091;-73
2023/07/09 00:05:16;;;;;;;7.50;6.32;;;20.00;78.80;;;;;;5038553;28;20033;-73
2023/07/09 00:07:45;;;;;;;9.85;6.20;;;20.00;77.60;;;;;;5041938;28;20091;-73
2023/07/09 00:10:19;;;;;;;10.15;6.95;;;20.10;78.20;;;;;;5042364;28;20029;-74
2023/07/09 00:12:47;;;;;;;8.98;6.13;;;20.10;79.40;;;;;;5040337;28;20124;-73
2023/07/09 00:15:15;;;;;;;8.23;6.47;;;20.00;79.10;;;;;;5038160;28;20072;-73
2023/07/09 00:17:42;;;;;;;9.27;6.10;;;20.00;81.40;;;;;;5037486;28;20040;-73
2023/07/09 00:20:14;;;;;;;7.03;6.10;;;20.00;80.20;;;;;;5053379;28;20555;-73
2023/07/09 00:22:41;;;;;;;7.25;6.13;;;20.00;80.20;;;;;;5038027;28;20063;-72
2023/07/09 00:25:13;;;;;;;7.60;6.53;;;20.00;78.10;;;;;;5038637;28;20463;-73
2023/07/09 00:27:39;;;;;;;8.93;6.30;;;19.90;78.30;;;;;;5071235;28;20128;-73
2023/07/09 00:30:15;;;;;;;7.03;6.32;;;19.90;80.70;;;;;;5024544;28;20033;-73
2023/07/09 00:32:43;;;;;;;;;;;19.90;81.00;;;;;;5042569;28;20033;-73
2023/07/09 00:35:15;;;;;;;11.15;7.38;;;19.90;80.50;;;;;;5039086;28;19920;-73
2023/07/09 00:37:42;;;;;;;11.10;6.72;;;19.90;81.50;;;;;;5041672;28;20507;-72
2023/07/09 00:40:21;;;;;;;12.40;7.45;;;19.80;82.40;;;;;;5038281;28;20053;-73
2023/07/09 00:42:49;;;;;;;9.90;7.85;;;19.70;82.90;;;;;;5056255;28;20167;-73
2023/07/09 00:45:26;;;;;;;9.82;7.43;;;19.70;83.20;;;;;;5043920;28;20036;-73
2023/07/09 00:48:06;;;;;;;9.05;7.18;;;19.70;83.70;;;;;;5042108;28;20522;-73
2023/07/09 00:50:52;;;;;;;11.57;7.38;;;19.60;83.60;;;;;;5044834;28;20037;-73
2023/07/09 00:53:19;;;;;;;;;;;19.60;83.00;;;;;;5042573;28;20381;-73
2023/07/09 00:56:09;;;;;;;10.68;7.28;;;19.50;81.80;;;;;;5042389;28;20007;-73
2023/07/09 00:58:38;;;;;;;9.00;7.60;;;19.40;82.10;;;;;;5044131;28;20040;-73
2023/07/09 01:01:09;;;;;;;10.50;7.93;;;19.50;83.00;;;;;;5041320;28;20091;-73
2023/07/09 01:03:40;;;;;;;10.93;8.27;;;19.40;83.60;;;;;;5043292;28;20041;-73
2023/07/09 01:06:07;;;;;;;12.20;8.13;;;19.40;83.20;;;;;;5044674;28;20044;-73
2023/07/09 01:08:37;;;;;;;8.27;7.35;;;19.50;83.10;;;;;;5058600;28;20538;-73
2023/07/09 01:11:03;;;;;;;9.55;7.90;;;19.40;83.80;;;;;;5042230;28;20049;-73
2023/07/09 01:13:32;;;;;;;12.70;7.97;;;19.40;84.10;;;;;;5039741;28;20186;-73
2023/07/09 01:15:59;;;;;;;9.95;6.90;;;19.30;84.40;;;;;;5042591;28;20036;-73
2023/07/09 01:18:25;;;;;;;9.60;7.45;;;19.30;84.70;;;;;;5057021;28;20120;-73
2023/07/09 01:21:01;;;;;;;11.85;7.63;;;19.30;84.90;;;;;;5041028;28;20123;-73
2023/07/09 01:23:27;;;;;;;11.02;7.43;;;19.30;84.80;;;;;;5073615;28;20044;-73
2023/07/09 01:25:54;;;;;;;10.90;7.70;;;19.30;84.70;;;;;;5041458;28;20055;-72
2023/07/09 01:28:20;;;;;;;11.65;8.38;;;19.30;85.00;;;;;;5042843;28;20801;-72
2023/07/09 01:30:53;;;;;;;12.20;7.72;;;19.30;84.30;;;;;;5041881;28;20044;-72
2023/07/09 01:33:22;;;;;;;10.45;7.40;;;19.30;84.60;;;;;;5073721;28;20037;-72
2023/07/09 01:35:49;;;;;;;12.95;7.30;;;19.30;84.70;;;;;;5041990;28;20473;-72
2023/07/09 01:38:15;;;;;;;11.60;7.75;;;19.30;84.90;;;;;;5054549;28;20109;-72
2023/07/09 01:40:40;;;;;;;11.85;7.95;;;19.30;84.90;;;;;;5041174;28;20428;-72
2023/07/09 01:43:07;;;;;;;11.75;7.85;;;19.30;84.70;;;;;;5072314;28;20034;-72
2023/07/09 01:45:35;;;;;;;9.55;8.02;;;19.30;85.00;;;;;;5074715;28;20041;-73
2023/07/09 01:48:02;;;;;;;9.40;7.45;;;19.30;85.00;;;;;;5040722;28;20033;-72
2023/07/09 01:50:28;;;;;;;9.98;7.32;;;19.30;84.30;;;;;;5055328;28;20041;-72
2023/07/09 01:52:57;;;;;;;10.35;7.05;;;19.20;84.50;;;;;;5040743;28;20025;-73
2023/07/09 01:55:23;;;;;;;11.45;7.50;;;19.30;84.00;;;;;;5041748;28;20208;-73
2023/07/09 01:57:51;;;;;;;10.90;7.53;;;19.30;84.30;;;;;;5028298;28;20468;-71
2023/07/09 02:00:17;;;;;;;14.85;8.30;;;19.20;84.90;;;;;;5036314;28;20029;-72
2023/07/09 02:02:46;;;;;;;9.40;7.75;;;19.30;85.10;;;;;;5038640;28;20427;-71
2023/07/09 02:05:15;;;;;;;10.35;7.53;;;19.20;84.60;;;;;;5041167;28;20716;-72
2023/07/09 02:07:41;;;;;;;10.50;7.68;;;19.20;84.80;;;;;;5074008;28;20483;-72
2023/07/09 02:10:07;;;;;;;11.65;7.75;;;19.20;84.20;;;;;;5073019;28;20654;-72
2023/07/09 02:12:34;;;;;;;9.07;7.63;;;19.20;84.40;;;;;;5040667;28;20458;-73
2023/07/09 02:14:59;;;;;;;10.40;7.30;;;19.30;83.90;;;;;;5037356;28;20037;-72
2023/07/09 02:17:25;;;;;;;11.57;7.55;;;19.30;84.50;;;;;;5024959;28;20086;-72
2023/07/09 02:19:51;;;;;;;12.13;7.72;;;19.30;82.40;;;;;;5044607;28;20091;-72
2023/07/09 02:22:19;;;;;;;9.18;7.82;;;19.30;82.00;;;;;;5041368;28;20075;-73
2023/07/09 02:24:45;;;;;;;10.00;7.15;;;19.40;82.30;;;;;;5040947;28;20571;-73
2023/07/09 02:27:16;;;;;;;9.55;7.07;;;19.50;81.90;;;;;;5039013;28;20063;-73
2023/07/09 02:29:42;;;;;;;13.00;7.43;;;19.60;82.00;;;;;;5039222;28;20504;-72
2023/07/09 02:32:09;;;;;;;9.50;6.82;;;19.80;81.90;;;;;;5039047;28;20041;-73
2023/07/09 02:34:35;;;;;;;9.88;7.30;;;19.90;81.50;;;;;;5037004;28;20496;-73
2023/07/09 02:37:01;;;;;;;9.13;7.15;;;20.10;81.00;;;;;;5072775;28;20048;-72
2023/07/09 02:39:27;;;;;;;8.60;7.07;;;20.00;79.10;;;;;;5041140;28;20033;-72
2023/07/09 02:41:53;;;;;;;7.75;6.53;;;20.00;78.80;;;;;;5054184;28;20043;-72
2023/07/09 02:44:20;;;;;;;7.65;6.30;;;20.10;77.90;;;;;;5043185;28;20093;-71
2023/07/09 02:46:47;;;;;;;6.78;6.07;;;20.20;77.80;;;;;;5041139;28;20511;-72
2023/07/09 02:49:13;;;;;;;8.35;6.63;;;20.40;77.50;;;;;;5073000;28;20037;-71
2023/07/09 02:51:40;;;;;;;7.95;6.57;;;20.60;77.40;;;;;;5039929;28;20091;-72
2023/07/09 02:54:06;;;;;;;8.80;6.43;;;20.70;76.60;;;;;;5039260;28;20033;-72
2023/07/09 02:56:32;;;;;;;9.00;6.10;;;20.80;76.50;;;;;;5037444;28;20033;-72
2023/07/09 02:58:58;;;;;;;9.70;6.20;;;20.90;76.80;;;;;;5044024;28;20037;-72
2023/07/09 03:01:26;;;;;;;7.40;6.55;;;21.00;76.80;;;;;;5039978;28;20101;-72
2023/07/09 03:03:54;;;;;;;8.75;5.88;;;21.10;77.00;;;;;;5038414;28;20037;-72
2023/07/09 03:06:21;;;;;;;6.95;6.00;;;21.30;75.90;;;;;;5071547;28;20041;-72
2023/07/09 03:08:47;;;;;;;8.27;5.65;;;21.40;74.70;;;;;;5039026;28;20033;-72
2023/07/09 03:11:15;;;;;;;8.10;6.05;;;21.50;74.20;;;;;;5041126;28;20508;-72
2023/07/09 03:13:41;;;;;;;8.80;6.35;;;21.50;75.00;;;;;;5071611;28;20044;-72
2023/07/09 03:16:07;;;;;;;7.43;6.30;;;21.40;75.80;;;;;;5072008;28;20082;-73
2023/07/09 03:18:33;;;;;;;9.30;6.53;;;21.30;76.20;;;;;;5039142;28;20118;-72
2023/07/09 03:20:59;;;;;;;7.50;6.70;;;21.20;76.10;;;;;;5040809;28;20029;-72
2023/07/09 03:23:25;;;;;;;10.77;6.50;;;21.20;77.40;;;;;;5039940;28;20128;-73
2023/07/09 03:25:51;;;;;;;9.57;6.78;;;21.20;77.70;;;;;;5042754;28;20029;-72
2023/07/09 03:28:17;;;;;;;9.98;7.93;;;21.20;78.70;;;;;;5034742;28;20032;-72
2023/07/09 03:30:45;;;;;;;10.75;6.93;;;21.20;77.80;;;;;;5037956;28;21159;-72
2023/07/09 03:33:12;;;;;;;8.27;6.88;;;21.30;76.40;;;;;;5038667;28;20541;-73
2023/07/09 03:35:39;;;;;;;8.07;7.03;;;21.50;76.40;;;;;;5038539;28;20060;-73
2023/07/09 03:38:06;;;;;;;7.40;6.00;;;21.70;74.60;;;;;;5038310;28;20520;-73
2023/07/09 03:40:32;;;;;;;9.80;6.60;;;21.80;74.40;;;;;;5039955;28;20040;-72
2023/07/09 03:42:58;;;;;;;8.02;6.13;;;21.90;74.90;;;;;;5038249;28;20029;-72
2023/07/09 03:45:24;;;;;;;11.38;6.90;;;22.00;73.70;;;;;;5036501;28;20037;-72
2023/07/09 03:47:50;;;;;;;7.55;5.90;;;22.10;73.50;;;;;;5040016;28;20048;-72
2023/07/09 03:50:16;;;;;;;7.43;5.43;;;22.20;73.10;;;;;;5038301;28;20040;-72
2023/07/09 03:52:42;;;;;;;6.32;5.53;;;22.40;73.20;;;;;;5071658;28;20124;-72
2023/07/09 03:55:09;;;;;;;6.57;5.22;;;22.70;72.80;;;;;;5039991;28;20048;-73
2023/07/09 03:57:35;;;;;;;7.50;5.38;;;22.90;72.50;;;;;;5039840;28;20118;-73
2023/07/09 04:00:03;;;;;;;8.50;6.00;;;23.00;71.20;;;;;;5039518;28;20037;-73
2023/07/09 04:02:43;;;;;;;7.13;5.00;;;23.30;71.80;;;;;;5038979;28;20542;-73
2023/07/09 04:05:09;;;;;;;5.68;5.10;;;23.40;71.00;;;;;;5039026;28;20451;-73
2023/07/09 04:07:36;;;;;;;10.68;4.97;;;23.60;71.00;;;;;;5040282;28;20403;-73
2023/07/09 04:10:03;;;;;;;7.68;5.35;;;23.70;70.40;;;;;;5038615;28;20034;-73
2023/07/09 04:12:29;;;;;;;6.65;4.70;;;23.90;70.80;;;;;;5039362;28;20520;-73
2023/07/09 04:14:55;;;;;;;4.50;4.07;;;24.10;68.50;;;;;;5038133;28;20127;-73
2023/07/09 04:17:22;;;;;;;6.72;4.97;;;24.30;70.50;;;;;;5045533;28;20048;-73
2023/07/09 04:19:50;;;;;;;5.95;4.20;;;24.50;68.60;;;;;;5045650;28;20025;-73
2023/07/09 04:22:16;;;;;;;4.72;4.13;;;24.70;66.50;;;;;;5041763;28;20080;-72
2023/07/09 04:24:42;;;;;;;5.03;4.00;;;24.80;68.10;;;;;;5040737;28;20508;-73
2023/07/09 04:27:09;;;;;;;6.30;4.20;;;25.00;68.30;;;;;;5076646;28;20052;-72
2023/07/09 04:29:35;;;;;;;4.25;3.58;;;25.10;67.50;;;;;;5041457;28;20044;-72
2023/07/09 04:32:13;;;;;;;4.85;3.78;;;25.20;65.00;;;;;;5042302;28;20086;-72
2023/07/09 04:34:39;;;;;;;4.78;4.10;;;25.40;63.30;;;;;;5044040;28;20041;-72
2023/07/09 04:37:08;;;;;;;3.38;3.08;;;25.40;63.60;;;;;;5042408;28;20037;-71
2023/07/09 04:39:34;;;;;;;4.00;3.40;;;25.60;63.50;;;;;;5040984;28;20026;-71
2023/07/09 04:42:01;;;;;;;3.72;3.40;;;25.60;60.70;;;;;;5042559;28;20057;-71
2023/07/09 04:44:27;;;;;;;4.10;3.20;;;25.70;60.50;;;;;;5041115;28;20052;-72
2023/07/09 04:46:53;;;;;;;3.38;2.65;;;25.90;64.10;;;;;;5042374;28;20036;-73
2023/07/09 04:49:19;;;;;;;3.40;3.03;;;26.00;57.90;;;;;;5041325;28;20037;-72
2023/07/09 04:51:44;;;;;;;5.20;2.92;;;26.10;57.80;;;;;;5042319;28;20033;-73
2023/07/09 04:54:10;;;;;;;3.05;2.50;;;26.40;58.20;;;;;;5042007;28;20040;-72
2023/07/09 04:56:37;;;;;;;3.20;2.85;;;26.50;57.80;;;;;;5041729;28;20072;-72
2023/07/09 04:59:03;;;;;;;3.03;2.00;;;26.50;55.60;;;;;;5042504;28;20025;-72
2023/07/09 05:01:29;;;;;;;2.58;2.30;;;26.70;55.40;;;;;;5043232;28;20037;-72
2023/07/09 05:03:55;;;;;;;2.70;2.50;;;26.90;54.40;;;;;;5075178;28;20040;-72
2023/07/09 05:06:21;;;;;;;3.83;2.63;;;27.00;54.30;;;;;;5040483;28;20472;-72
2023/07/09 05:08:48;;;;;;;3.30;2.40;;;27.10;54.00;;;;;;5043724;28;20037;-71
2023/07/09 05:11:15;;;;;;;4.40;2.58;;;27.10;53.90;;;;;;5041411;28;20128;-72
2023/07/09 05:13:41;;;;;;;2.72;2.55;;;27.30;52.60;;;;;;5042518;28;20032;-71
2023/07/09 05:16:07;;;;;;;2.70;2.50;;;27.30;52.60;;;;;;5043614;28;20083;-72
2023/07/09 05:18:33;;;;;;;3.95;2.50;;;27.40;53.10;;;;;;5043342;28;20029;-72
2023/07/09 05:20:59;;;;;;;2.97;2.40;;;27.60;52.50;;;;;;5045080;28;20439;-72
2023/07/09 05:23:25;;;;;;;2.70;2.50;;;27.70;52.50;;;;;;5041624;28;20045;-71
2023/07/09 05:26:02;;;;;;;4.07;2.35;;;27.80;52.70;;;;;;5043948;28;20037;-72
2023/07/09 05:28:29;;;;;;;2.97;2.35;;;27.90;51.70;;;;;;5041100;28;20049;-71
2023/07/09 05:30:55;;;;;;;3.85;2.25;;;27.90;51.20;;;;;;5042766;28;20037;-71
2023/07/09 05:33:21;;;;;;;4.03;2.45;;;27.80;49.40;;;;;;5042678;28;20043;-71
2023/07/09 05:35:47;;;;;;;2.40;2.20;;;27.90;51.60;;;;;;5041188;28;20035;-72
2023/07/09 05:38:14;;;;;;;2.40;2.20;;;28.10;51.20;;;;;;5040845;28;20029;-71
2023/07/09 05:40:42;;;;;;;2.60;2.25;;;28.30;54.20;;;;;;5043627;28;20040;-71
2023/07/09 05:43:08;;;;;;;2.40;2.20;;;28.50;51.00;;;;;;5040910;28;20033;-71
2023/07/09 05:45:34;;;;;;;5.00;2.80;;;28.70;51.70;;;;;;5041959;28;20043;-72
2023/07/09 05:48:01;;;;;;;2.92;2.42;;;28.80;50.40;;;;;;5042385;28;20131;-71
2023/07/09 05:50:28;;;;;;;2.92;2.10;;;28.90;51.60;;;;;;5040889;28;20423;-72
2023/07/09 05:52:54;;;;;;;2.20;2.00;;;29.00;51.60;;;;;;5041355;28;20500;-72
2023/07/09 05:55:20;;;;;;;4.07;2.85;;;29.20;52.90;;;;;;5042223;28;20110;-73
2023/07/09 05:57:46;;;;;;;2.67;2.47;;;29.00;48.60;;;;;;5040961;28;20136;-71
2023/07/09 06:00:13;;;;;;;3.33;2.70;;;29.10;48.20;;;;;;5041308;28;20532;-72
2023/07/09 06:02:42;;;;;;;2.80;2.60;;;29.10;48.80;;;;;;5042028;28;20033;-71
2023/07/09 06:05:11;;;;;;;2.80;2.50;;;29.30;48.80;;;;;;5040140;28;20046;-71
2023/07/09 06:07:38;;;;;;;3.97;2.85;;;29.40;48.00;;;;;;5043037;28;20078;-72
2023/07/09 06:10:08;;;;;;;3.33;2.33;;;29.50;47.70;;;;;;5040289;28;20553;-72
2023/07/09 06:12:34;;;;;;;3.25;2.40;;;29.70;46.30;;;;;;5042207;28;20037;-72
2023/07/09 06:15:00;;;;;;;3.00;2.70;;;29.70;46.20;;;;;;5040779;28;20029;-73
2023/07/09 06:17:26;;;;;;;2.63;2.40;;;29.50;46.70;;;;;;5041541;28;20025;-73
2023/07/09 06:19:52;;;;;;;2.78;2.55;;;29.70;46.20;;;;;;5041322;28;20029;-72
2023/07/09 06:22:18;;;;;;;2.70;2.22;;;29.70;47.70;;;;;;5039185;28;20405;-72
2023/07/09 06:24:45;;;;;;;3.00;2.30;;;29.70;46.10;;;;;;5039897;28;20036;-72
2023/07/09 06:27:11;;;;;;;4.82;2.25;;;29.70;44.80;;;;;;5039026;28;20416;-72
2023/07/09 06:29:37;;;;;;;2.60;2.40;;;29.70;44.60;;;;;;5041269;28;20040;-73
2023/07/09 06:32:04;;;;;;;2.03;1.83;;;29.80;44.60;;;;;;5041782;28;20044;-73
2023/07/09 06:34:30;;;;;;;2.33;2.10;;;29.80;44.60;;;;;;5041099;28;20428;-73
2023/07/09 06:36:57;;;;;;;2.20;2.00;;;29.90;46.40;;;;;;5040469;28;20029;-73
2023/07/09 06:39:23;;;;;;;3.70;2.03;;;30.00;45.80;;;;;;5040421;28;21498;-73
2023/07/09 06:41:50;;;;;;;3.30;1.77;;;30.00;44.00;;;;;;5041095;28;20033;-72
2023/07/09 06:44:54;;;;;;;3.50;2.22;;;30.10;46.00;;;;;;5038675;28;20056;-72
2023/07/09 06:47:20;;;;;;;2.75;1.77;;;30.00;46.70;;;;;;5039921;28;20025;-72
2023/07/09 06:49:46;;;;;;;2.30;2.08;;;29.60;45.20;;;;;;5057197;28;20032;-72
2023/07/09 06:52:12;;;;;;;1.90;1.80;;;29.30;45.60;;;;;;5042081;28;20032;-72
2023/07/09 06:54:37;;;;;;;2.58;1.88;;;29.10;45.60;;;;;;5041543;28;20029;-72
2023/07/09 06:57:04;;;;;;;2.33;1.90;;;29.30;47.00;;;;;;5039687;28;20095;-73
2023/07/09 06:59:30;;;;;;;4.10;2.42;;;29.50;48.00;;;;;;5041533;28;20428;-76
2023/07/09 07:01:56;;;;;;;3.30;2.00;;;29.70;45.90;;;;;;5039794;28;20110;-75
2023/07/09 07:04:21;;;;;;;2.42;2.00;;;29.80;46.80;;;;;;5040621;28;20040;-74
2023/07/09 07:06:47;;;;;;;1.88;1.77;;;29.80;47.10;;;;;;5042047;28;20041;-76
2023/07/09 07:09:13;;;;;;;2.55;1.98;;;29.90;45.20;;;;;;5072265;28;21216;-76
2023/07/09 07:11:39;;;;;;;2.00;1.90;;;29.70;44.90;;;;;;5042437;28;20051;-75
2023/07/09 07:14:05;;;;;;;2.17;1.90;;;29.30;43.80;;;;;;5040988;28;20086;-77
2023/07/09 07:16:31;;;;;;;2.22;2.03;;;29.20;44.40;;;;;;5040264;28;20040;-76
2023/07/09 07:18:57;;;;;;;4.85;2.40;;;29.20;45.00;;;;;;5040958;28;20412;-76
2023/07/09 07:21:23;;;;;;;4.18;2.30;;;29.10;45.90;;;;;;5071124;28;20037;-76
2023/07/09 07:23:49;;;;;;;3.22;1.88;;;29.00;46.90;;;;;;5042741;28;20037;-76
2023/07/09 07:26:15;;;;;;;3.58;2.45;;;29.10;46.80;;;;;;5040062;28;20025;-77
2023/07/09 07:28:42;;;;;;;2.58;2.35;;;29.30;47.40;;;;;;5041433;28;20148;-76
2023/07/09 07:31:09;;;;;;;3.20;2.10;;;29.40;48.20;;;;;;5041194;28;20132;-75
2023/07/09 07:33:36;;;;;;;2.53;2.33;;;29.50;48.60;;;;;;5042071;28;20036;-75
2023/07/09 07:36:05;;;;;;;3.17;2.10;;;29.50;48.00;;;;;;5042071;28;20037;-76
2023/07/09 07:38:31;;;;;;;3.58;2.25;;;29.50;47.30;;;;;;5041992;28;20029;-76
2023/07/09 07:40:57;;;;;;;4.90;2.00;;;29.40;47.30;;;;;;5041779;28;20407;-74
2023/07/09 07:43:23;;;;;;;1.88;1.77;;;29.40;47.60;;;;;;5038890;28;20033;-73
2023/07/09 07:45:49;;;;;;;2.90;2.25;;;29.40;44.00;;;;;;5041763;28;20397;-76
2023/07/09 07:48:15;;;;;;;2.15;1.98;;;29.40;44.00;;;;;;5040880;28;20283;-76
2023/07/09 07:50:41;;;;;;;3.75;2.17;;;29.50;44.50;;;;;;5039422;28;20037;-75
2023/07/09 07:53:08;;;;;;;2.25;1.70;;;29.10;43.40;;;;;;5040579;28;20155;-75
2023/07/09 07:55:36;;;;;;;2.28;1.80;;;29.00;46.20;;;;;;5042568;28;20040;-75
2023/07/09 07:58:03;;;;;;;2.85;1.80;;;29.00;48.00;;;;;;5036959;28;20056;-74
2023/07/09 08:00:30;;;;;;;5.72;2.33;;;29.10;48.70;;;;;;5040367;28;20487;-76
2023/07/09 08:02:56;;;;;;;2.17;1.80;;;29.00;48.40;;;;;;5041814;28;20120;-76
2023/07/09 08:05:23;;;;;;;1.90;1.80;;;29.00;48.80;;;;;;5042575;28;20131;-76
2023/07/09 08:07:49;;;;;;;1.98;1.83;;;29.00;47.10;;;;;;5053810;28;20038;-77
2023/07/09 08:10:16;;;;;;;3.22;1.98;;;28.90;47.70;;;;;;5071451;28;20538;-76
2023/07/09 08:12:42;;;;;;;2.03;1.77;;;28.90;48.50;;;;;;5042044;28;20128;-75
2023/07/09 08:15:08;;;;;;;2.97;1.98;;;28.90;48.10;;;;;;5040542;28;20132;-79
2023/07/09 08:17:34;;;;;;;3.22;2.25;;;28.90;47.60;;;;;;5039283;28;20041;-77
2023/07/09 08:20:00;;;;;;;3.17;2.30;;;28.60;46.60;;;;;;5040295;28;20071;-76
2023/07/09 08:22:26;;;;;;;3.38;1.85;;;28.50;47.60;;;;;;5039308;28;20052;-81
2023/07/09 08:24:52;;;;;;;3.75;2.20;;;28.40;48.60;;;;;;5040925;28;20033;-80
2023/07/09 08:27:19;;;;;;;2.70;2.00;;;28.40;49.10;;;;;;5043191;28;20029;-79
2023/07/09 08:29:45;;;;;;;2.53;1.92;;;28.40;48.70;;;;;;5040193;28;20599;-79
2023/07/09 08:32:12;;;;;;;3.17;2.05;;;28.50;49.70;;;;;;5041325;28;20052;-76
2023/07/09 08:34:40;;;;;;;3.63;2.08;;;28.50;49.60;;;;;;5039908;28;20388;-79
2023/07/09 08:37:07;;;;;;;4.03;2.00;;;28.40;48.40;;;;;;5039063;28;20586;-78
2023/07/09 08:39:33;;;;;;;2.65;2.00;;;28.30;47.10;;;;;;5043085;28;20039;-78
2023/07/09 08:42:10;;;;;;;2.13;1.95;;;28.20;48.30;;;;;;5040444;28;20696;-77
2023/07/09 08:45:13;;;;;;;2.28;2.00;;;28.20;48.90;;;;;;5040603;28;20040;-77
2023/07/09 08:48:05;;;;;;;4.18;2.30;;;28.30;48.80;;;;;;5039631;28;20084;-79
2023/07/09 08:50:50;;;;;;;3.95;2.38;;;28.30;47.50;;;;;;5040639;28;20052;-79
2023/07/09 08:53:24;;;;;;;3.20;2.25;;;28.00;48.30;;;;;;5053875;28;20033;-77
2023/07/09 08:55:51;;;;;;;2.03;1.88;;;28.10;49.40;;;;;;5024003;28;20120;-76
2023/07/09 08:58:27;;;;;;;2.58;2.25;;;28.10;49.40;;;;;;5069945;28;20068;-79
2023/07/09 09:01:06;;;;;;;2.17;2.00;;;28.10;47.40;;;;;;5038368;28;20033;-80
2023/07/09 09:03:47;;;;;;;2.00;1.90;;;28.10;47.90;;;;;;5042407;28;20037;-79
2023/07/09 09:06:20;;;;;;;2.03;1.90;;;28.20;47.00;;;;;;5044175;28;20128;-81
2023/07/09 09:09:00;;;;;;;2.85;2.25;;;28.10;45.70;;;;;;5041238;28;20072;-80
2023/07/09 09:11:49;;;;;;;2.53;2.20;;;27.90;47.00;;;;;;5041320;28;20048;-78
2023/07/09 09:14:33;;;;;;;4.05;2.10;;;27.80;45.90;;;;;;5044853;28;20029;-78
2023/07/09 09:16:59;;;;;;;2.55;2.00;;;27.70;46.50;;;;;;5045338;28;20074;-81
2023/07/09 09:19:37;;;;;;;2.42;2.22;;;27.60;47.60;;;;;;5057360;28;20725;-78
2023/07/09 09:22:13;;;;;;;2.25;1.80;;;27.70;47.60;;;;;;5042544;28;20077;-78
2023/07/09 09:24:58;;;;;;;3.10;1.77;;;27.50;46.40;;;;;;5043211;28;20404;-78
2023/07/09 09:27:24;;;;;;;2.10;1.90;;;27.50;47.90;;;;;;5043097;28;20049;-77
2023/07/09 09:29:50;;;;;;;4.43;1.88;;;27.50;48.10;;;;;;5044448;28;20128;-77
2023/07/09 09:32:24;;;;;;;5.43;2.17;;;27.50;46.80;;;;;;5043113;28;20116;-77
2023/07/09 09:34:50;;;;;;;1.60;1.50;;;27.40;46.30;;;;;;5043095;28;20416;-76
2023/07/09 09:37:31;;;;;;;2.35;2.10;;;27.20;47.10;;;;;;5045516;28;20037;-78
2023/07/09 09:39:59;;;;;;;2.25;2.05;;;27.20;48.80;;;;;;5043118;28;20067;-80
2023/07/09 09:42:25;;;;;;;3.85;2.45;;;27.30;48.40;;;;;;5044051;28;20728;-78
2023/07/09 09:44:55;;;;;;;3.85;2.97;;;27.20;48.10;;;;;;5042192;28;20064;-78
2023/07/09 09:47:23;;;;;;;3.42;3.13;;;27.30;49.30;;;;;;5041587;28;20037;-79
2023/07/09 09:49:49;;;;;;;2.47;2.28;;;27.30;50.00;;;;;;5044319;28;20029;-80
2023/07/09 09:52:20;;;;;;;2.45;2.25;;;27.30;47.70;;;;;;5043357;28;20385;-79
2023/07/09 09:55:11;;;;;;;2.28;2.03;;;27.20;46.10;;;;;;5040399;28;20040;-77
2023/07/09 09:57:37;;;;;;;2.75;2.10;;;27.20;47.00;;;;;;5040753;28;20516;-75
2023/07/09 10:00:06;;;;;;;4.22;2.30;;;27.20;47.40;;;;;;5041322;28;20049;-76
2023/07/09 10:02:42;;;;;;;3.13;2.50;;;27.30;48.00;;;;;;5040423;28;20563;-77
2023/07/09 10:05:16;;;;;;;3.70;2.63;;;27.40;49.40;;;;;;5038939;28;20037;-77
2023/07/09 10:08:06;;;;;;;2.95;2.17;;;27.40;49.60;;;;;;5042247;28;20124;-76
2023/07/09 10:10:33;;;;;;;3.55;2.10;;;27.40;48.30;;;;;;5039501;28;20419;-77
2023/07/09 10:13:10;;;;;;;2.42;2.22;;;27.30;47.60;;;;;;5040038;28;20227;-78
2023/07/09 10:16:02;;;;;;;2.83;2.10;;;27.30;46.10;;;;;;5042135;28;20029;-77
2023/07/09 10:18:52;;;;;;;3.22;2.40;;;27.20;47.40;;;;;;5040551;28;20063;-77
2023/07/09 10:21:35;;;;;;;3.53;2.30;;;27.30;50.40;;;;;;5040959;28;20496;-78
2023/07/09 10:24:27;;;;;;;2.78;2.10;;;27.40;48.90;;;;;;5040686;28;20474;-78
2023/07/09 10:27:03;;;;;;;3.20;2.13;;;27.50;47.00;;;;;;5038532;28;20037;-79
2023/07/09 10:29:51;;;;;;;2.85;2.03;;;27.30;46.90;;;;;;5041313;28;20898;-78
2023/07/09 10:32:28;;;;;;;4.18;2.20;;;27.20;46.80;;;;;;5041896;28;20504;-77
2023/07/09 10:35:09;;;;;;;3.28;2.10;;;27.10;47.30;;;;;;5039815;28;20040;-77
2023/07/09 10:37:53;;;;;;;2.10;1.90;;;26.90;48.20;;;;;;5040943;28;20119;-79
2023/07/09 10:40:30;;;;;;;1.90;1.70;;;26.90;46.80;;;;;;5043096;28;20060;-79
2023/07/09 10:43:01;;;;;;;3.33;2.10;;;26.90;46.80;;;;;;5040961;28;20538;-76
2023/07/09 10:45:42;;;;;;;3.03;1.80;;;26.90;47.60;;;;;;5041162;28;20043;-73
2023/07/09 10:48:31;;;;;;;3.28;2.00;;;26.80;46.80;;;;;;5041134;28;20120;-73
2023/07/09 10:50:57;;;;;;;7.20;2.63;;;26.80;47.20;;;;;;5039657;28;20039;-75
2023/07/09 10:53:37;;;;;;;2.42;2.22;;;26.80;49.60;;;;;;5041166;28;20419;-74
2023/07/09 10:56:35;;;;;;;2.53;2.13;;;26.80;48.00;;;;;;5042924;28;20036;-76
2023/07/09 10:59:05;;;;;;;2.72;2.30;;;26.70;48.80;;;;;;5040617;28;20045;-72
2023/07/09 11:01:41;;;;;;;2.65;2.10;;;26.70;49.90;;;;;;5037898;28;20511;-73
2023/07/09 11:04:37;;;;;;;3.70;2.05;;;26.80;50.70;;;;;;5039900;28;20037;-73
2023/07/09 11:07:06;;;;;;;;;;;26.90;50.20;;;;;;5039337;28;20177;-72
2023/07/09 11:09:38;;;;;;;3.25;2.05;;;26.70;49.40;;;;;;5040367;28;19917;-73
2023/07/09 11:12:14;;;;;;;2.28;2.05;;;26.80;49.90;;;;;;5038423;28;20124;-73
2023/07/09 11:14:47;;;;;;;2.20;2.00;;;26.90;49.50;;;;;;5038380;28;20140;-73
2023/07/09 11:17:20;;;;;;;2.42;2.22;;;26.90;49.40;;;;;;5040502;28;20508;-73
2023/07/09 11:19:49;;;;;;;2.83;2.45;;;26.90;49.30;;;;;;5040039;28;20502;-72
2023/07/09 11:22:20;;;;;;;3.05;2.25;;;26.90;50.00;;;;;;5040438;28;20059;-72
2023/07/09 11:25:09;;;;;;;3.67;2.15;;;26.80;49.90;;;;;;5039208;28;20415;-72
2023/07/09 11:27:49;;;;;;;3.92;2.72;;;26.60;49.50;;;;;;5039414;28;20041;-73
2023/07/09 11:30:44;;;;;;;4.32;2.13;;;26.50;49.80;;;;;;5040072;28;20411;-73
2023/07/09 11:33:27;;;;;;;2.47;1.70;;;26.40;49.60;;;;;;5040157;28;20110;-72
2023/07/09 11:36:15;;;;;;;1.65;1.55;;;26.60;49.20;;;;;;5039848;28;20033;-73
2023/07/09 11:38:49;;;;;;;3.13;2.03;;;26.40;48.20;;;;;;5042890;28;20032;-73
2023/07/09 11:41:28;;;;;;;3.25;2.17;;;26.40;49.10;;;;;;5038613;28;20036;-73
2023/07/09 11:44:18;;;;;;;3.80;1.95;;;26.40;49.50;;;;;;5039412;28;20026;-73
2023/07/09 11:47:04;;;;;;;2.50;2.30;;;26.40;48.90;;;;;;5039845;28;20038;-73
2023/07/09 11:49:39;;;;;;;2.92;1.92;;;26.30;49.10;;;;;;5042653;28;20540;-73
2023/07/09 11:52:08;;;;;;;2.03;1.73;;;26.40;49.40;;;;;;5038092;28;20033;-74
2023/07/09 11:54:36;;;;;;;3.53;2.10;;;26.40;49.20;;;;;;5039302;28;20030;-73
2023/07/09 11:57:02;;;;;;;2.38;2.17;;;26.30;49.30;;;;;;5040557;28;20033;-72
2023/07/09 11:59:29;;;;;;;3.28;2.40;;;26.40;49.70;;;;;;5037726;28;20037;-72
2023/07/09 12:02:00;;;;;;;4.60;2.45;;;26.50;50.30;;;;;;5039833;28;20124;-73
2023/07/09 12:04:33;;;;;;;2.20;1.90;;;26.50;50.40;;;;;;5038548;28;20136;-72
2023/07/09 12:07:01;;;;;;;2.08;1.92;;;26.50;50.10;;;;;;5038396;28;20482;-73
2023/07/09 12:09:32;;;;;;;2.60;2.13;;;26.50;50.50;;;;;;5041103;28;20036;-72
2023/07/09 12:11:58;;;;;;;2.92;2.10;;;26.40;50.30;;;;;;5039559;28;20036;-73
2023/07/09 12:14:24;;;;;;;3.35;2.03;;;26.40;49.70;;;;;;5070645;28;20029;-72
2023/07/09 12:16:52;;;;;;;3.40;2.25;;;26.40;50.20;;;;;;5039819;28;20155;-73
2023/07/09 12:19:20;;;;;;;2.65;2.00;;;26.30;50.30;;;;;;5038240;28;20053;-73
2023/07/09 12:21:51;;;;;;;2.85;2.28;;;26.30;49.70;;;;;;5039513;28;20048;-73
2023/07/09 12:24:21;;;;;;;2.47;2.08;;;26.30;50.30;;;;;;5037332;28;20033;-73
2023/07/09 12:26:49;;;;;;;2.70;2.22;;;26.40;49.70;;;;;;5038450;28;20037;-73
2023/07/09 12:29:15;;;;;;;2.88;2.10;;;26.40;50.20;;;;;;5039282;28;20049;-73
2023/07/09 12:31:41;;;;;;;3.20;2.10;;;26.50;49.30;;;;;;5039472;28;20037;-74
2023/07/09 12:34:14;;;;;;;1.92;1.80;;;26.50;49.50;;;;;;5037825;28;20095;-73
2023/07/09 12:36:51;;;;;;;2.95;1.95;;;26.40;49.90;;;;;;5040073;28;20037;-73
2023/07/09 12:39:25;;;;;;;3.33;2.03;;;26.50;49.70;;;;;;5043334;28;20065;-71
2023/07/09 12:41:56;;;;;;;2.17;2.05;;;26.40;49.50;;;;;;5043174;28;20073;-73
2023/07/09 12:44:23;;;;;;;2.70;2.20;;;26.50;49.10;;;;;;5042088;28;20561;-72
2023/07/09 12:46:50;;;;;;;2.45;2.25;;;26.40;49.00;;;;;;5043136;28;20550;-75
2023/07/09 12:49:28;;;;;;;2.88;2.05;;;26.40;49.80;;;;;;5044065;28;20040;-72
2023/07/09 12:51:56;;;;;;;2.83;2.10;;;26.40;50.30;;;;;;5042799;28;20036;-72
2023/07/09 12:54:22;;;;;;;2.88;1.80;;;26.50;49.70;;;;;;5042310;28;20033;-72
2023/07/09 12:56:53;;;;;;;2.50;2.30;;;26.60;50.00;;;;;;5044692;28;20454;-74
2023/07/09 12:59:28;;;;;;;2.40;2.20;;;26.40;50.00;;;;;;5040477;28;20114;-73